Time;durP1;ratioP1;P1;durP2;ratioP2;P2;SDS_P1;SDS_P2;PMS_P1;PMS_P2;Temp;Humidity;BMP_temperature;BMP_pressure;BME280_temperature;BME280_humidity;BME280_pressure;Samples;Min_cycle;Max_cycle;Signal;HPM_P1;HPM_P2
2020/12/04 00:01:05;;;;;;;1.43;1.30;;;;;;;;;;5077834;28;20024;-85
2020/12/04 00:03:32;;;;;;;5.03;3.80;;;;;;;;;;5076102;28;20056;-81
2020/12/04 00:05:58;;;;;;;4.50;2.33;;;;;;;;;;5077488;28;20072;-83
2020/12/04 00:08:24;;;;;;;7.40;3.87;;;;;;;;;;5079006;28;20013;-83
2020/12/04 00:10:50;;;;;;;4.57;4.13;;;;;;;;;;5077571;28;20021;-84
2020/12/04 00:13:16;;;;;;;5.40;3.43;;;;;;;;;;5072853;28;20460;-82
2020/12/04 00:15:42;;;;;;;2.97;2.57;;;;;;;;;;5064560;28;20048;-81
2020/12/04 00:18:08;;;;;;;5.67;4.07;;;;;;;;;;5064806;28;20036;-81
2020/12/04 00:20:34;;;;;;;2.57;2.07;;;;;;;;;;5066165;28;20028;-83
2020/12/04 00:23:00;;;;;;;2.77;2.20;;;;;;;;;;5064800;28;20049;-83
2020/12/04 00:25:27;;;;;;;5.00;3.60;;;;;;;;;;5067118;28;20032;-82
2020/12/04 00:27:53;;;;;;;3.33;2.90;;;;;;;;;;5068090;28;20033;-82
2020/12/04 00:30:19;;;;;;;2.70;2.27;;;;;;;;;;5072733;28;20025;-83
2020/12/04 00:32:45;;;;;;;2.97;2.07;;;;;;;;;;5073833;28;20031;-82
2020/12/04 00:35:11;;;;;;;2.77;2.03;;;;;;;;;;5077656;28;20056;-82
2020/12/04 00:37:37;;;;;;;2.30;2.10;;;;;;;;;;5093284;28;20021;-82
2020/12/04 00:40:03;;;;;;;3.17;2.53;;;;;;;;;;5085205;28;20051;-82
2020/12/04 00:42:30;;;;;;;1.53;1.43;;;;;;;;;;5085868;28;20032;-81
2020/12/04 00:44:56;;;;;;;1.90;1.60;;;;;;;;;;5086131;28;20483;-82
2020/12/04 00:47:22;;;;;;;3.03;1.23;;;;;;;;;;5088316;28;20028;-84
2020/12/04 00:49:49;;;;;;;2.37;1.57;;;;;;;;;;5088713;28;20025;-83
2020/12/04 00:52:16;;;;;;;3.20;1.73;;;;;;;;;;5087173;28;20383;-83
2020/12/04 00:54:42;;;;;;;1.77;1.43;;;;;;;;;;5087635;28;20025;-82
2020/12/04 00:57:08;;;;;;;2.13;1.50;;;;;;;;;;5089801;28;20025;-84
2020/12/04 00:59:35;;;;;;;2.93;2.33;;;;;;;;;;5093656;28;20017;-82
2020/12/04 01:02:01;;;;;;;3.80;1.50;;;;;;;;;;5094899;28;20105;-81
2020/12/04 01:04:27;;;;;;;6.17;2.40;;;;;;;;;;5090249;28;20028;-82
2020/12/04 01:06:53;;;;;;;1.90;1.53;;;;;;;;;;5091282;28;20029;-82
2020/12/04 01:09:19;;;;;;;2.60;1.00;;;;;;;;;;5094826;28;20013;-82
2020/12/04 01:11:46;;;;;;;2.40;2.20;;;;;;;;;;5093617;28;20063;-82
2020/12/04 01:14:12;;;;;;;1.77;1.40;;;;;;;;;;5087622;28;20031;-82
2020/12/04 01:16:38;;;;;;;2.77;1.07;;;;;;;;;;5085614;28;20035;-82
2020/12/04 01:19:04;;;;;;;1.80;1.20;;;;;;;;;;5088223;28;20043;-82
2020/12/04 01:21:30;;;;;;;1.93;1.47;;;;;;;;;;5092247;28;20046;-81
2020/12/04 01:23:56;;;;;;;1.70;1.20;;;;;;;;;;5088986;28;20025;-84
2020/12/04 01:26:23;;;;;;;2.43;1.73;;;;;;;;;;5089932;28;20029;-81
2020/12/04 01:28:49;;;;;;;2.13;1.93;;;;;;;;;;5090268;28;20020;-82
2020/12/04 01:31:15;;;;;;;2.07;1.70;;;;;;;;;;5093123;28;20024;-82
2020/12/04 01:33:41;;;;;;;2.43;1.70;;;;;;;;;;5090977;28;20020;-81
2020/12/04 01:36:07;;;;;;;2.40;1.40;;;;;;;;;;5091874;28;20061;-82
2020/12/04 01:38:34;;;;;;;2.03;1.83;;;;;;;;;;5088633;28;20032;-81
2020/12/04 01:41:01;;;;;;;2.03;1.40;;;;;;;;;;5090143;28;20082;-83
2020/12/04 01:43:27;;;;;;;3.67;1.87;;;;;;;;;;5088302;28;20021;-82
2020/12/04 01:45:54;;;;;;;2.30;1.33;;;;;;;;;;5090743;28;20033;-82
2020/12/04 01:48:20;;;;;;;0.77;0.77;;;;;;;;;;5090673;28;20021;-82
2020/12/04 01:50:46;;;;;;;3.30;2.37;;;;;;;;;;5090613;28;20476;-81
2020/12/04 01:53:12;;;;;;;1.93;1.60;;;;;;;;;;5094901;28;20113;-82
2020/12/04 01:55:38;;;;;;;3.97;2.77;;;;;;;;;;5097823;28;20124;-84
2020/12/04 01:58:04;;;;;;;1.60;1.17;;;;;;;;;;5099649;28;20028;-83
2020/12/04 02:00:30;;;;;;;3.40;2.10;;;;;;;;;;5097692;28;20024;-81
2020/12/04 02:02:57;;;;;;;1.27;1.00;;;;;;;;;;5095611;28;20112;-85
2020/12/04 02:05:23;;;;;;;2.97;2.40;;;;;;;;;;5096624;28;20088;-85
2020/12/04 02:07:59;;;;;;;3.27;2.27;;;;;;;;;;5098598;28;20104;-83
2020/12/04 02:10:30;;;;;;;2.70;2.07;;;;;;;;;;5098316;28;20020;-83
2020/12/04 02:12:56;;;;;;;3.43;2.33;;;;;;;;;;5097448;28;20024;-82
2020/12/04 02:15:23;;;;;;;3.53;2.97;;;;;;;;;;5099046;28;20092;-81
2020/12/04 02:17:55;;;;;;;3.23;2.73;;;;;;;;;;5097511;28;20035;-82
2020/12/04 02:20:21;;;;;;;2.63;1.70;;;;;;;;;;5099282;28;20021;-82
2020/12/04 02:22:47;;;;;;;3.70;1.93;;;;;;;;;;5093859;28;20051;-84
2020/12/04 02:25:13;;;;;;;4.43;2.23;;;;;;;;;;5094528;28;20047;-81
2020/12/04 02:27:46;;;;;;;2.93;1.87;;;;;;;;;;5093956;28;20025;-82
2020/12/04 02:30:13;;;;;;;3.93;1.93;;;;;;;;;;5097702;28;20054;-81
2020/12/04 02:32:39;;;;;;;2.33;1.93;;;;;;;;;;5099721;28;20027;-81
2020/12/04 02:35:06;;;;;;;2.30;1.87;;;;;;;;;;5097125;28;20044;-81
2020/12/04 02:37:32;;;;;;;2.87;1.63;;;;;;;;;;5096041;28;20024;-81
2020/12/04 02:39:58;;;;;;;3.83;2.27;;;;;;;;;;5114763;28;20024;-81
2020/12/04 02:42:24;;;;;;;2.97;2.50;;;;;;;;;;5098528;28;20012;-79
2020/12/04 02:44:50;;;;;;;3.07;2.57;;;;;;;;;;5118021;28;20027;-80
2020/12/04 02:47:16;;;;;;;5.30;2.70;;;;;;;;;;5099656;28;20024;-80
2020/12/04 02:49:42;;;;;;;1.93;1.53;;;;;;;;;;5083903;28;20027;-82
2020/12/04 02:52:08;;;;;;;2.27;1.93;;;;;;;;;;5118251;28;20020;-83
2020/12/04 02:54:34;;;;;;;2.27;1.80;;;;;;;;;;5101673;28;20004;-83
2020/12/04 02:57:00;;;;;;;2.20;1.73;;;;;;;;;;5101092;28;20020;-81
2020/12/04 02:59:26;;;;;;;5.30;2.00;;;;;;;;;;5100020;28;20020;-82
2020/12/04 03:01:52;;;;;;;1.97;1.40;;;;;;;;;;5090089;28;20482;-81
2020/12/04 03:04:18;;;;;;;2.77;1.93;;;;;;;;;;5085881;28;20524;-82
2020/12/04 03:06:44;;;;;;;3.50;2.27;;;;;;;;;;5106558;28;20028;-82
2020/12/04 03:09:10;;;;;;;2.90;2.00;;;;;;;;;;5086119;28;20024;-80
2020/12/04 03:11:36;;;;;;;3.17;2.20;;;;;;;;;;5086427;28;20045;-81
2020/12/04 03:14:03;;;;;;;2.33;1.80;;;;;;;;;;5086826;28;20089;-81
2020/12/04 03:16:29;;;;;;;2.83;1.97;;;;;;;;;;5085643;28;20050;-81
2020/12/04 03:18:55;;;;;;;4.63;2.30;;;;;;;;;;5085494;28;20036;-81
2020/12/04 03:21:21;;;;;;;3.43;2.70;;;;;;;;;;5105011;28;20028;-82
2020/12/04 03:23:47;;;;;;;3.53;2.10;;;;;;;;;;5087996;28;20024;-81
2020/12/04 03:26:13;;;;;;;2.57;2.13;;;;;;;;;;5086811;28;20020;-82
2020/12/04 03:28:39;;;;;;;3.30;1.97;;;;;;;;;;5105308;28;20020;-81
2020/12/04 03:31:05;;;;;;;2.87;2.13;;;;;;;;;;5090982;28;20024;-83
2020/12/04 03:33:31;;;;;;;1.93;1.47;;;;;;;;;;5091083;28;20020;-82
2020/12/04 03:35:57;;;;;;;3.20;2.30;;;;;;;;;;5097144;28;20116;-83
2020/12/04 03:38:23;;;;;;;3.10;2.77;;;;;;;;;;5100682;28;20012;-83
2020/12/04 03:40:49;;;;;;;1.90;1.63;;;;;;;;;;5100846;28;20023;-83
2020/12/04 03:43:15;;;;;;;3.13;2.10;;;;;;;;;;5113042;28;20043;-80
2020/12/04 03:45:41;;;;;;;4.07;1.70;;;;;;;;;;5110707;28;20039;-82
2020/12/04 03:48:07;;;;;;;4.53;2.67;;;;;;;;;;5099949;28;20024;-82
2020/12/04 03:50:33;;;;;;;3.23;1.27;;;;;;;;;;5098761;28;20020;-82
2020/12/04 03:52:59;;;;;;;2.47;1.30;;;;;;;;;;5088851;28;20038;-81
2020/12/04 03:55:25;;;;;;;2.13;0.90;;;;;;;;;;5087917;28;20040;-80
2020/12/04 03:57:51;;;;;;;3.57;1.03;;;;;;;;;;5073033;28;20108;-80
2020/12/04 04:00:17;;;;;;;5.13;2.20;;;;;;;;;;5085140;28;20064;-82
2020/12/04 04:02:44;;;;;;;2.03;1.47;;;;;;;;;;5108398;28;20016;-80
2020/12/04 04:05:10;;;;;;;2.93;1.63;;;;;;;;;;5105276;28;20062;-82
2020/12/04 04:07:36;;;;;;;2.20;1.20;;;;;;;;;;5090817;28;20099;-84
2020/12/04 04:10:03;;;;;;;2.70;1.40;;;;;;;;;;5107165;28;20030;-81
2020/12/04 04:12:29;;;;;;;1.37;1.13;;;;;;;;;;5106967;28;20024;-80
2020/12/04 04:14:55;;;;;;;2.63;1.67;;;;;;;;;;5106920;28;20024;-81
2020/12/04 04:17:21;;;;;;;1.87;1.50;;;;;;;;;;5091073;28;20099;-81
2020/12/04 04:19:47;;;;;;;2.60;1.73;;;;;;;;;;5079048;28;20121;-82
2020/12/04 04:22:14;;;;;;;1.57;1.13;;;;;;;;;;5117592;28;20015;-83
2020/12/04 04:24:40;;;;;;;2.13;1.70;;;;;;;;;;5098337;28;20096;-83
2020/12/04 04:27:06;;;;;;;3.97;1.30;;;;;;;;;;5117412;28;20042;-81
2020/12/04 04:29:32;;;;;;;2.17;1.50;;;;;;;;;;5093264;28;20039;-81
2020/12/04 04:31:58;;;;;;;1.20;0.70;;;;;;;;;;5090346;28;20028;-82
2020/12/04 04:34:24;;;;;;;1.53;1.23;;;;;;;;;;5089993;28;20403;-82
2020/12/04 04:36:50;;;;;;;2.10;1.10;;;;;;;;;;5087052;28;20048;-83
2020/12/04 04:39:16;;;;;;;1.57;0.93;;;;;;;;;;5090299;28;20028;-81
2020/12/04 04:41:42;;;;;;;1.23;1.13;;;;;;;;;;5090572;28;20031;-81
2020/12/04 04:44:12;;;;;;;1.80;1.17;;;;;;;;;;5092215;28;20054;-82
2020/12/04 04:46:58;;;;;;;0.50;0.30;;;;;;;;;;5111773;28;20081;-82
2020/12/04 04:49:27;;;;;;;0.87;0.80;;;;;;;;;;5096992;28;20052;-85
2020/12/04 04:51:54;;;;;;;0.70;0.50;;;;;;;;;;5117023;28;20031;-83
2020/12/04 04:54:21;;;;;;;0.53;0.50;;;;;;;;;;5099096;28;20046;-85
2020/12/04 04:56:47;;;;;;;0.97;0.87;;;;;;;;;;5101778;28;20059;-83
2020/12/04 04:59:13;;;;;;;0.50;0.50;;;;;;;;;;5099671;28;20028;-82
2020/12/04 05:01:40;;;;;;;2.50;0.70;;;;;;;;;;5118481;28;20084;-81
2020/12/04 05:04:06;;;;;;;1.03;0.70;;;;;;;;;;5114422;28;20111;-82
2020/12/04 05:06:36;;;;;;;1.33;0.70;;;;;;;;;;5094159;28;20034;-81
2020/12/04 05:09:06;;;;;;;1.23;0.60;;;;;;;;;;5093068;28;20086;-84
2020/12/04 05:11:32;;;;;;;0.80;0.80;;;;;;;;;;5094952;28;20384;-82
2020/12/04 05:14:12;;;;;;;1.40;1.00;;;;;;;;;;5096560;28;20019;-82
2020/12/04 05:16:38;;;;;;;2.90;0.60;;;;;;;;;;5100424;28;20083;-84
2020/12/04 05:19:05;;;;;;;0.83;0.57;;;;;;;;;;5114044;28;20039;-83
2020/12/04 05:21:34;;;;;;;0.97;0.80;;;;;;;;;;5098097;28;20030;-82
2020/12/04 05:24:00;;;;;;;0.97;0.50;;;;;;;;;;5095462;28;20479;-83
2020/12/04 05:26:34;;;;;;;1.17;0.77;;;;;;;;;;5113924;28;20060;-83
2020/12/04 05:29:00;;;;;;;0.80;0.70;;;;;;;;;;5093767;28;20078;-81
2020/12/04 05:31:33;;;;;;;0.77;0.60;;;;;;;;;;5091788;28;20040;-82
2020/12/04 05:34:00;;;;;;;0.73;0.63;;;;;;;;;;5095090;28;20042;-80
2020/12/04 05:36:30;;;;;;;1.43;0.90;;;;;;;;;;5096388;28;20082;-82
2020/12/04 05:38:57;;;;;;;1.23;0.70;;;;;;;;;;5097898;28;20036;-82
2020/12/04 05:41:24;;;;;;;2.93;0.93;;;;;;;;;;5088619;28;20024;-82
2020/12/04 05:43:52;;;;;;;3.53;0.50;;;;;;;;;;5107214;28;20020;-82
2020/12/04 05:46:19;;;;;;;1.63;0.83;;;;;;;;;;5088296;28;20024;-80
2020/12/04 05:48:59;;;;;;;2.40;0.87;;;;;;;;;;5087977;28;20020;-81
2020/12/04 05:51:30;;;;;;;1.07;0.57;;;;;;;;;;5090686;28;20103;-83
2020/12/04 05:53:56;;;;;;;0.90;0.57;;;;;;;;;;5088874;28;20020;-80
2020/12/04 05:56:23;;;;;;;0.60;0.60;;;;;;;;;;5089345;28;20035;-83
2020/12/04 05:58:49;;;;;;;2.30;0.60;;;;;;;;;;5090522;28;20066;-82
2020/12/04 06:01:17;;;;;;;1.23;0.60;;;;;;;;;;5110504;28;20032;-83
2020/12/04 06:03:44;;;;;;;2.87;1.00;;;;;;;;;;5096265;28;20032;-83
2020/12/04 06:06:10;;;;;;;1.40;0.93;;;;;;;;;;5097609;28;20041;-81
2020/12/04 06:08:42;;;;;;;2.10;0.70;;;;;;;;;;5091474;28;20027;-79
2020/12/04 06:11:09;;;;;;;1.33;0.80;;;;;;;;;;5110007;28;20028;-85
2020/12/04 06:13:36;;;;;;;0.60;0.60;;;;;;;;;;5092952;28;20049;-81
2020/12/04 06:16:12;;;;;;;0.80;0.50;;;;;;;;;;5095219;28;20032;-82
2020/12/04 06:18:39;;;;;;;1.27;0.80;;;;;;;;;;5116861;28;20090;-82
2020/12/04 06:21:05;;;;;;;2.27;0.97;;;;;;;;;;5115908;28;20023;-81
2020/12/04 06:23:32;;;;;;;0.43;0.40;;;;;;;;;;5092959;28;20027;-82
2020/12/04 06:25:59;;;;;;;0.43;0.40;;;;;;;;;;5111763;28;20393;-81
2020/12/04 06:28:31;;;;;;;0.90;0.70;;;;;;;;;;5099251;28;20000;-84
2020/12/04 06:31:00;;;;;;;1.90;0.77;;;;;;;;;;5098604;28;20058;-81
2020/12/04 06:33:55;;;;;;;1.57;0.80;;;;;;;;;;5119092;28;20008;-82
2020/12/04 06:36:21;;;;;;;;;;;;;;;;;;5074817;28;20079;-82
2020/12/04 06:38:48;;;;;;;0.83;0.70;;;;;;;;;;5092397;28;19923;-82
2020/12/04 06:41:34;;;;;;;0.67;0.40;;;;;;;;;;5096101;28;20052;-82
2020/12/04 06:44:03;;;;;;;1.73;1.00;;;;;;;;;;5116324;28;20024;-82
2020/12/04 06:46:43;;;;;;;0.77;0.63;;;;;;;;;;5111861;28;20084;-83
2020/12/04 06:49:10;;;;;;;1.17;0.80;;;;;;;;;;5106417;28;20023;-81
2020/12/04 06:51:39;;;;;;;3.73;1.00;;;;;;;;;;5089628;28;20190;-81
2020/12/04 06:54:06;;;;;;;3.30;0.63;;;;;;;;;;5090315;28;20024;-83
2020/12/04 06:56:32;;;;;;;1.70;0.63;;;;;;;;;;5093290;28;20028;-80
2020/12/04 06:58:58;;;;;;;1.37;0.93;;;;;;;;;;5085054;28;20039;-81
2020/12/04 07:01:24;;;;;;;2.93;1.10;;;;;;;;;;5102743;28;20038;-80
2020/12/04 07:03:54;;;;;;;4.30;0.60;;;;;;;;;;5117145;28;20084;-81
2020/12/04 07:06:21;;;;;;;1.07;0.67;;;;;;;;;;5115796;28;20024;-82
2020/12/04 07:08:57;;;;;;;1.43;0.70;;;;;;;;;;5096259;28;20004;-81
2020/12/04 07:11:25;;;;;;;0.60;0.40;;;;;;;;;;5111210;28;20028;-80
2020/12/04 07:13:51;;;;;;;1.70;0.43;;;;;;;;;;5115861;28;20012;-81
2020/12/04 07:16:17;;;;;;;2.00;0.30;;;;;;;;;;5114671;28;20028;-82
2020/12/04 07:18:43;;;;;;;2.10;0.60;;;;;;;;;;5096869;28;20034;-80
2020/12/04 07:21:09;;;;;;;1.90;0.43;;;;;;;;;;5109414;28;20099;-82
2020/12/04 07:23:36;;;;;;;1.03;0.43;;;;;;;;;;5105333;28;20528;-81
2020/12/04 07:26:05;;;;;;;2.67;0.93;;;;;;;;;;5088876;28;20099;-82
2020/12/04 07:28:32;;;;;;;1.37;0.60;;;;;;;;;;5108727;28;20059;-80
2020/12/04 07:30:59;;;;;;;1.43;0.60;;;;;;;;;;5085749;28;20036;-82
2020/12/04 07:33:25;;;;;;;0.83;0.43;;;;;;;;;;5104379;28;20106;-82
2020/12/04 07:36:03;;;;;;;0.37;0.33;;;;;;;;;;5089668;28;20044;-82
2020/12/04 07:38:29;;;;;;;1.07;0.50;;;;;;;;;;5109854;28;20077;-82
2020/12/04 07:40:55;;;;;;;0.90;0.30;;;;;;;;;;5092745;28;20048;-83
2020/12/04 07:43:21;;;;;;;1.57;0.40;;;;;;;;;;5091793;28;20433;-82
2020/12/04 07:45:47;;;;;;;4.10;0.50;;;;;;;;;;5108691;28;20110;-80
2020/12/04 07:48:13;;;;;;;2.57;0.60;;;;;;;;;;5110262;28;20024;-84
2020/12/04 07:50:39;;;;;;;1.07;0.30;;;;;;;;;;5093320;28;20028;-81
2020/12/04 07:53:06;;;;;;;2.37;0.40;;;;;;;;;;5093394;28;20032;-83
2020/12/04 07:55:38;;;;;;;1.67;0.53;;;;;;;;;;5090805;28;20031;-83
2020/12/04 07:58:14;;;;;;;6.33;0.57;;;;;;;;;;5094613;28;20032;-82
2020/12/04 08:00:44;;;;;;;3.07;0.40;;;;;;;;;;5094693;28;20043;-81
2020/12/04 08:03:11;;;;;;;0.40;0.30;;;;;;;;;;5097485;28;20026;-80
2020/12/04 08:05:39;;;;;;;0.70;0.30;;;;;;;;;;5109307;28;20077;-81
2020/12/04 08:08:05;;;;;;;1.37;0.50;;;;;;;;;;5091375;28;20020;-84
2020/12/04 08:10:31;;;;;;;2.43;0.50;;;;;;;;;;5112756;28;20050;-80
2020/12/04 08:12:58;;;;;;;2.37;0.50;;;;;;;;;;5095862;28;20020;-81
2020/12/04 08:15:24;;;;;;;1.27;0.50;;;;;;;;;;5099047;28;20028;-82
2020/12/04 08:18:03;;;;;;;1.90;1.03;;;;;;;;;;5115197;28;20058;-80
2020/12/04 08:20:29;;;;;;;1.23;0.63;;;;;;;;;;5097686;28;20101;-82
2020/12/04 08:22:55;;;;;;;3.20;0.90;;;;;;;;;;5097707;28;20081;-81
2020/12/04 08:25:25;;;;;;;1.63;0.40;;;;;;;;;;5095724;28;20091;-83
2020/12/04 08:27:52;;;;;;;2.00;0.37;;;;;;;;;;5092993;28;20024;-83
2020/12/04 08:30:19;;;;;;;0.33;0.33;;;;;;;;;;5115002;28;20088;-83
2020/12/04 08:32:54;;;;;;;0.30;0.30;;;;;;;;;;5096958;28;20029;-84
2020/12/04 08:35:24;;;;;;;2.23;0.40;;;;;;;;;;5115699;28;20040;-84
2020/12/04 08:37:52;;;;;;;1.20;0.60;;;;;;;;;;5097057;28;20055;-81
2020/12/04 08:40:29;;;;;;;0.70;0.30;;;;;;;;;;5098752;28;20032;-83
2020/12/04 08:43:08;;;;;;;1.47;0.40;;;;;;;;;;5095410;28;20032;-84
2020/12/04 08:45:34;;;;;;;0.50;0.40;;;;;;;;;;5095849;28;20048;-84
2020/12/04 08:48:08;;;;;;;0.67;0.30;;;;;;;;;;5094735;28;20084;-82
2020/12/04 08:50:39;;;;;;;1.80;0.60;;;;;;;;;;5094539;28;20020;-81
2020/12/04 08:53:08;;;;;;;0.40;0.40;;;;;;;;;;5095097;28;20028;-82
2020/12/04 08:55:34;;;;;;;3.40;0.40;;;;;;;;;;5097348;28;20035;-83
2020/12/04 08:58:00;;;;;;;0.63;0.30;;;;;;;;;;5098036;28;20050;-84
2020/12/04 09:00:33;;;;;;;0.90;0.40;;;;;;;;;;5094075;28;20031;-81
2020/12/04 09:02:59;;;;;;;0.80;0.43;;;;;;;;;;5090815;28;20036;-81
2020/12/04 09:05:26;;;;;;;1.63;0.40;;;;;;;;;;5108522;28;20031;-82
2020/12/04 09:07:52;;;;;;;1.07;0.50;;;;;;;;;;5087004;28;20035;-82
2020/12/04 09:10:19;;;;;;;2.37;0.40;;;;;;;;;;5089630;28;20043;-81
2020/12/04 09:12:47;;;;;;;0.40;0.40;;;;;;;;;;5087713;28;20023;-83
2020/12/04 09:15:16;;;;;;;4.27;1.13;;;;;;;;;;5093110;28;20049;-83
2020/12/04 09:17:42;;;;;;;1.63;0.40;;;;;;;;;;5093081;28;20115;-79
2020/12/04 09:20:09;;;;;;;1.40;0.50;;;;;;;;;;5092969;28;20115;-81
2020/12/04 09:22:36;;;;;;;0.70;0.50;;;;;;;;;;5090713;28;20027;-81
2020/12/04 09:25:04;;;;;;;1.00;0.60;;;;;;;;;;5090945;28;20035;-82
2020/12/04 09:27:30;;;;;;;0.57;0.57;;;;;;;;;;5087571;28;20023;-82
2020/12/04 09:29:56;;;;;;;0.87;0.40;;;;;;;;;;5104344;28;20099;-79
2020/12/04 09:32:22;;;;;;;3.70;0.73;;;;;;;;;;5086950;28;20032;-84
2020/12/04 09:34:49;;;;;;;1.00;0.60;;;;;;;;;;5089375;28;20020;-81
2020/12/04 09:37:16;;;;;;;0.50;0.40;;;;;;;;;;5096790;28;20048;-82
2020/12/04 09:39:48;;;;;;;3.00;0.73;;;;;;;;;;5118150;28;20032;-82
2020/12/04 09:42:15;;;;;;;0.93;0.50;;;;;;;;;;5116006;28;20028;-84
2020/12/04 09:44:42;;;;;;;1.13;0.60;;;;;;;;;;5118211;28;20039;-84
2020/12/04 09:47:08;;;;;;;1.77;0.80;;;;;;;;;;5095868;28;20039;-83
2020/12/04 09:49:35;;;;;;;1.50;0.60;;;;;;;;;;5092476;28;20031;-80
2020/12/04 09:52:01;;;;;;;0.60;0.50;;;;;;;;;;5090570;28;20028;-82
2020/12/04 09:54:28;;;;;;;2.30;0.50;;;;;;;;;;5111343;28;20024;-84
2020/12/04 09:56:55;;;;;;;1.90;0.80;;;;;;;;;;5109188;28;20024;-81
2020/12/04 09:59:24;;;;;;;1.20;0.60;;;;;;;;;;5095177;28;20470;-81
2020/12/04 10:01:51;;;;;;;1.87;0.70;;;;;;;;;;5093012;28;20032;-81
2020/12/04 10:04:18;;;;;;;0.70;0.60;;;;;;;;;;5094569;28;20024;-82
2020/12/04 10:06:44;;;;;;;1.47;0.80;;;;;;;;;;5092517;28;20054;-81
2020/12/04 10:09:11;;;;;;;0.97;0.63;;;;;;;;;;5092203;28;20083;-82
2020/12/04 10:11:37;;;;;;;1.67;0.80;;;;;;;;;;5092245;28;20027;-82
2020/12/04 10:14:03;;;;;;;3.70;0.60;;;;;;;;;;5090122;28;20040;-81
2020/12/04 10:16:30;;;;;;;2.87;0.67;;;;;;;;;;5090525;28;20055;-82
2020/12/04 10:18:57;;;;;;;1.27;0.73;;;;;;;;;;5091453;28;20053;-84
2020/12/04 10:21:24;;;;;;;2.07;0.60;;;;;;;;;;5093418;28;20024;-82
2020/12/04 10:23:50;;;;;;;1.97;0.60;;;;;;;;;;5076764;28;20090;-81
2020/12/04 10:26:16;;;;;;;1.03;0.57;;;;;;;;;;5091729;28;20035;-83
2020/12/04 10:28:42;;;;;;;2.70;0.60;;;;;;;;;;5093289;28;20031;-80
2020/12/04 10:31:08;;;;;;;1.00;0.60;;;;;;;;;;5091755;28;20020;-79
2020/12/04 10:33:34;;;;;;;3.73;0.47;;;;;;;;;;5090771;28;20020;-83
2020/12/04 10:36:04;;;;;;;4.57;0.70;;;;;;;;;;5089978;28;20052;-82
2020/12/04 10:38:30;;;;;;;3.63;0.87;;;;;;;;;;5093046;28;20032;-82
2020/12/04 10:40:56;;;;;;;1.00;0.47;;;;;;;;;;5098194;28;20008;-83
2020/12/04 10:43:22;;;;;;;2.20;0.63;;;;;;;;;;5095886;28;20028;-81
2020/12/04 10:45:49;;;;;;;1.53;0.70;;;;;;;;;;5096631;28;20016;-85
2020/12/04 10:48:16;;;;;;;0.60;0.43;;;;;;;;;;5094221;28;20021;-82
2020/12/04 10:50:42;;;;;;;2.77;0.57;;;;;;;;;;5086833;28;20028;-81
2020/12/04 10:53:08;;;;;;;0.53;0.40;;;;;;;;;;5092243;28;20029;-83
2020/12/04 10:55:34;;;;;;;0.90;0.50;;;;;;;;;;5093231;28;20047;-83
2020/12/04 10:58:00;;;;;;;1.00;0.40;;;;;;;;;;5090883;28;20024;-80
2020/12/04 11:00:26;;;;;;;1.03;0.50;;;;;;;;;;5073951;28;20059;-80
2020/12/04 11:02:57;;;;;;;5.67;2.03;;;;;;;;;;5096824;28;20115;-80
2020/12/04 11:05:37;;;;;;;3.30;0.70;;;;;;;;;;5095216;28;20028;-81
2020/12/04 11:08:04;;;;;;;2.47;0.90;;;;;;;;;;5098113;28;20019;-80
2020/12/04 11:10:30;;;;;;;0.67;0.37;;;;;;;;;;5086396;28;20032;-81
2020/12/04 11:12:56;;;;;;;2.47;0.87;;;;;;;;;;5086509;28;20024;-80
2020/12/04 11:15:22;;;;;;;6.87;0.90;;;;;;;;;;5069017;28;20108;-82
2020/12/04 11:17:48;;;;;;;2.53;0.40;;;;;;;;;;5087739;28;20078;-82
2020/12/04 11:20:16;;;;;;;2.47;0.47;;;;;;;;;;5087046;28;20032;-81
2020/12/04 11:22:42;;;;;;;1.10;0.50;;;;;;;;;;5088914;28;20040;-79
2020/12/04 11:25:09;;;;;;;2.17;0.57;;;;;;;;;;5088126;28;20115;-83
2020/12/04 11:27:41;;;;;;;1.47;0.60;;;;;;;;;;5094509;28;20029;-82
2020/12/04 11:30:07;;;;;;;2.77;0.67;;;;;;;;;;5095592;28;20029;-81
2020/12/04 11:32:34;;;;;;;1.33;0.60;;;;;;;;;;5091322;28;20028;-80
2020/12/04 11:35:00;;;;;;;0.60;0.40;;;;;;;;;;5093489;28;20024;-82
2020/12/04 11:37:26;;;;;;;1.93;0.60;;;;;;;;;;5096800;28;20024;-83
2020/12/04 11:39:53;;;;;;;4.20;1.10;;;;;;;;;;5097643;28;20040;-82
2020/12/04 11:42:19;;;;;;;2.60;0.90;;;;;;;;;;5097895;28;20031;-81
2020/12/04 11:44:45;;;;;;;1.73;0.50;;;;;;;;;;5091719;28;20073;-81
2020/12/04 11:47:11;;;;;;;1.63;0.60;;;;;;;;;;5110016;28;20034;-80
2020/12/04 11:49:37;;;;;;;0.77;0.37;;;;;;;;;;5092100;28;20032;-81
2020/12/04 11:52:03;;;;;;;0.60;0.50;;;;;;;;;;5096719;28;20084;-81
2020/12/04 11:54:29;;;;;;;4.53;0.50;;;;;;;;;;5112712;28;20028;-80
2020/12/04 11:56:55;;;;;;;0.90;0.47;;;;;;;;;;5093530;28;20048;-81
2020/12/04 11:59:21;;;;;;;2.33;0.43;;;;;;;;;;5110218;28;20063;-82
2020/12/04 12:01:47;;;;;;;1.13;0.40;;;;;;;;;;5112113;28;20008;-84
2020/12/04 12:04:15;;;;;;;0.50;0.50;;;;;;;;;;5111080;28;20043;-81
2020/12/04 12:06:41;;;;;;;0.83;0.43;;;;;;;;;;5094294;28;20092;-83
2020/12/04 12:09:08;;;;;;;1.33;0.43;;;;;;;;;;5095969;28;20024;-80
2020/12/04 12:11:34;;;;;;;0.83;0.50;;;;;;;;;;5109564;28;20070;-81
2020/12/04 12:14:00;;;;;;;1.27;0.40;;;;;;;;;;5090707;28;20052;-82
2020/12/04 12:16:26;;;;;;;1.10;0.37;;;;;;;;;;5090230;28;20028;-84
2020/12/04 12:18:53;;;;;;;0.70;0.50;;;;;;;;;;5088932;28;20028;-82
2020/12/04 12:21:19;;;;;;;0.63;0.40;;;;;;;;;;5104705;28;20035;-82
2020/12/04 12:23:45;;;;;;;3.47;0.40;;;;;;;;;;5088048;28;20016;-80
2020/12/04 12:26:12;;;;;;;6.17;1.40;;;;;;;;;;5104974;28;20031;-80
2020/12/04 12:28:41;;;;;;;2.27;0.50;;;;;;;;;;5104587;28;20032;-82
2020/12/04 12:31:07;;;;;;;0.67;0.40;;;;;;;;;;5088546;28;20537;-81
2020/12/04 12:33:33;;;;;;;0.47;0.33;;;;;;;;;;5088387;28;20016;-81
2020/12/04 12:35:59;;;;;;;2.23;0.60;;;;;;;;;;5088743;28;20505;-81
2020/12/04 12:38:25;;;;;;;2.27;0.50;;;;;;;;;;5108153;28;20031;-82
2020/12/04 12:40:51;;;;;;;1.13;0.70;;;;;;;;;;5109828;28;20024;-82
2020/12/04 12:43:18;;;;;;;2.07;0.70;;;;;;;;;;5094715;28;20024;-81
2020/12/04 12:45:44;;;;;;;1.83;0.50;;;;;;;;;;5095718;28;20019;-82
2020/12/04 12:48:10;;;;;;;1.10;0.60;;;;;;;;;;5100851;28;20520;-85
2020/12/04 12:50:36;;;;;;;0.30;0.30;;;;;;;;;;5116480;28;20036;-83
2020/12/04 12:53:03;;;;;;;1.00;0.33;;;;;;;;;;5101421;28;20012;-84
2020/12/04 12:55:29;;;;;;;0.53;0.50;;;;;;;;;;5096699;28;20044;-83
2020/12/04 12:57:55;;;;;;;3.27;0.60;;;;;;;;;;5093528;28;20031;-82
2020/12/04 13:00:22;;;;;;;5.53;0.50;;;;;;;;;;5092423;28;20482;-82
2020/12/04 13:02:48;;;;;;;1.10;0.40;;;;;;;;;;5112561;28;20087;-82
2020/12/04 13:05:33;;;;;;;1.23;0.40;;;;;;;;;;5096904;28;20024;-81
2020/12/04 13:08:06;;;;;;;1.73;0.40;;;;;;;;;;5115403;28;20024;-84
2020/12/04 13:10:32;;;;;;;0.63;0.37;;;;;;;;;;5098593;28;20031;-83
2020/12/04 13:12:59;;;;;;;0.80;0.50;;;;;;;;;;5101733;28;20012;-82
2020/12/04 13:15:25;;;;;;;2.33;0.50;;;;;;;;;;5104229;28;20026;-85
2020/12/04 13:17:51;;;;;;;0.47;0.40;;;;;;;;;;5121375;28;20050;-81
2020/12/04 13:20:18;;;;;;;0.80;0.40;;;;;;;;;;5103140;28;20027;-82
2020/12/04 13:23:11;;;;;;;0.53;0.40;;;;;;;;;;5102057;28;20024;-82
2020/12/04 13:25:31;;;;;;;1.60;0.50;;;;;;;;;;5118487;28;20032;-81
2020/12/04 13:27:57;;;;;;;1.40;0.50;;;;;;;;;;5094106;28;20031;-82
2020/12/04 13:30:23;;;;;;;0.77;0.40;;;;;;;;;;5092989;28;20123;-82
2020/12/04 13:32:49;;;;;;;3.47;1.87;;;;;;;;;;5097314;28;20055;-83
2020/12/04 13:35:17;;;;;;;2.83;1.10;;;;;;;;;;5094475;28;20063;-83
2020/12/04 13:37:43;;;;;;;3.53;0.70;;;;;;;;;;5095634;28;20025;-83
2020/12/04 13:40:10;;;;;;;5.33;0.80;;;;;;;;;;5099795;28;20022;-83
2020/12/04 13:42:36;;;;;;;2.73;0.77;;;;;;;;;;5099921;28;20028;-82
2020/12/04 13:45:02;;;;;;;1.03;0.60;;;;;;;;;;5118417;28;20016;-82
2020/12/04 13:47:28;;;;;;;2.43;0.77;;;;;;;;;;5118100;28;20042;-83
2020/12/04 13:49:54;;;;;;;5.40;0.97;;;;;;;;;;5078675;28;20028;-83
2020/12/04 13:52:21;;;;;;;0.90;0.50;;;;;;;;;;5093599;28;20081;-82
2020/12/04 13:54:47;;;;;;;0.50;0.43;;;;;;;;;;5095992;28;20028;-82
2020/12/04 13:57:13;;;;;;;1.10;0.40;;;;;;;;;;5114595;28;20028;-82
2020/12/04 13:59:39;;;;;;;0.90;0.40;;;;;;;;;;5095259;28;20047;-84
2020/12/04 14:02:05;;;;;;;1.97;0.70;;;;;;;;;;5093705;28;20091;-81
2020/12/04 14:04:32;;;;;;;1.27;0.80;;;;;;;;;;5096515;28;20161;-84
2020/12/04 14:06:58;;;;;;;4.70;0.47;;;;;;;;;;5095684;28;20121;-81
2020/12/04 14:09:25;;;;;;;2.27;0.60;;;;;;;;;;5115051;28;20028;-84
2020/12/04 14:11:51;;;;;;;3.70;0.83;;;;;;;;;;5116217;28;20111;-84
2020/12/04 14:14:17;;;;;;;1.70;0.43;;;;;;;;;;5102712;28;20024;-82
2020/12/04 14:16:44;;;;;;;1.87;0.80;;;;;;;;;;5102507;28;20012;-82
2020/12/04 14:19:10;;;;;;;1.43;0.80;;;;;;;;;;5093470;28;20096;-82
2020/12/04 14:21:37;;;;;;;1.67;0.70;;;;;;;;;;5111318;28;20028;-81
2020/12/04 14:24:03;;;;;;;3.40;0.70;;;;;;;;;;5110408;28;20028;-82
2020/12/04 14:26:29;;;;;;;1.60;0.70;;;;;;;;;;5093010;28;20051;-82
2020/12/04 14:28:55;;;;;;;2.83;0.87;;;;;;;;;;5077147;28;20028;-82
2020/12/04 14:31:21;;;;;;;1.33;0.70;;;;;;;;;;5099884;28;20012;-82
2020/12/04 14:33:47;;;;;;;2.13;0.90;;;;;;;;;;5119578;28;20042;-82
2020/12/04 14:36:14;;;;;;;2.10;1.00;;;;;;;;;;5094491;28;20054;-82
2020/12/04 14:41:25;;;;;;;1.63;0.90;;;;;;;;;;5118166;28;20028;-83
2020/12/04 14:43:51;;;;;;;2.73;1.00;;;;;;;;;;5118626;28;20020;-82
2020/12/04 14:46:18;;;;;;;1.60;1.23;;;;;;;;;;5112172;28;20032;-83